Time;durP1;ratioP1;P1;durP2;ratioP2;P2;SDS_P1;SDS_P2;PMS_P1;PMS_P2;Temp;Humidity;BMP_temperature;BMP_pressure;BME280_temperature;BME280_humidity;BME280_pressure;Samples;Min_cycle;Max_cycle;Signal;HPM_P1;HPM_P2
2022/08/07 00:00:55;;;;;;;;;;;22.50;67.10;;;;;;6213033;23;832;-66
2022/08/07 00:03:22;;;;;;;;;;;22.50;67.10;;;;;;6212941;23;922;-66
2022/08/07 00:05:51;;;;;;;;;;;22.50;67.10;;;;;;6212819;23;1200;-66
2022/08/07 00:08:16;;;;;;;;;;;22.50;67.10;;;;;;6212545;23;773;-67
2022/08/07 00:10:42;;;;;;;;;;;22.50;67.10;;;;;;6213569;23;797;-69
2022/08/07 00:13:07;;;;;;;;;;;22.50;67.10;;;;;;6213534;23;1893;-70
2022/08/07 00:15:33;;;;;;;;;;;22.50;67.10;;;;;;6211422;23;1226;-68
2022/08/07 00:17:58;;;;;;;;;;;22.50;67.20;;;;;;6210882;23;813;-66
2022/08/07 00:20:24;;;;;;;;;;;22.50;67.20;;;;;;6214495;23;998;-66
2022/08/07 00:22:49;;;;;;;;;;;22.50;67.20;;;;;;6214514;23;1010;-66
2022/08/07 00:25:14;;;;;;;;;;;22.50;67.20;;;;;;6216241;23;1276;-66
2022/08/07 00:27:40;;;;;;;;;;;22.50;67.20;;;;;;6213274;23;808;-66
2022/08/07 00:30:06;;;;;;;;;;;22.50;67.20;;;;;;6215104;23;780;-66
2022/08/07 00:32:31;;;;;;;;;;;22.50;67.30;;;;;;6216371;23;1940;-66
2022/08/07 00:34:56;;;;;;;;;;;22.50;67.20;;;;;;6216080;23;1189;-67
2022/08/07 00:37:23;;;;;;;;;;;22.50;67.30;;;;;;6215718;23;1045;-66
2022/08/07 00:39:49;;;;;;;;;;;22.50;67.30;;;;;;6217129;23;804;-66
2022/08/07 00:42:15;;;;;;;;;;;22.50;67.30;;;;;;6215628;23;749;-66
2022/08/07 00:44:40;;;;;;;;;;;22.50;67.30;;;;;;6215181;23;1216;-67
2022/08/07 00:47:07;;;;;;;;;;;22.50;67.30;;;;;;6215183;23;915;-66
2022/08/07 00:49:32;;;;;;;;;;;22.50;67.30;;;;;;6216125;23;717;-66
2022/08/07 00:51:58;;;;;;;;;;;22.50;67.30;;;;;;6216444;23;1893;-66
2022/08/07 00:54:23;;;;;;;;;;;22.50;67.30;;;;;;6216231;23;1210;-66
2022/08/07 00:56:49;;;;;;;;;;;22.50;67.30;;;;;;6214160;23;781;-66
2022/08/07 00:59:14;;;;;;;;;;;22.50;67.30;;;;;;6216407;23;957;-66
2022/08/07 01:01:40;;;;;;;;;;;22.50;67.40;;;;;;6216622;23;800;-66
2022/08/07 01:04:05;;;;;;;;;;;22.50;67.40;;;;;;6216082;23;866;-66
2022/08/07 01:06:31;;;;;;;;;;;22.50;67.30;;;;;;6215434;23;1228;-66
2022/08/07 01:08:56;;;;;;;;;;;22.50;67.40;;;;;;6216358;23;816;-66
2022/08/07 01:11:22;;;;;;;;;;;22.50;67.40;;;;;;6216517;23;867;-66
2022/08/07 01:13:47;;;;;;;;;;;22.50;67.40;;;;;;6212677;23;1934;-66
2022/08/07 01:16:13;;;;;;;;;;;22.50;67.40;;;;;;6212789;23;1293;-66
2022/08/07 01:18:39;;;;;;;;;;;22.50;67.40;;;;;;6214375;23;772;-66
2022/08/07 01:21:07;;;;;;;;;;;22.50;67.40;;;;;;6212843;23;831;-66
2022/08/07 01:23:33;;;;;;;;;;;22.50;67.50;;;;;;6213647;23;979;-68
2022/08/07 01:25:58;;;;;;;;;;;22.50;67.50;;;;;;6212412;23;1267;-67
2022/08/07 01:28:24;;;;;;;;;;;22.50;67.50;;;;;;6214863;23;1018;-67
2022/08/07 01:30:50;;;;;;;;;;;22.50;67.50;;;;;;6214361;23;792;-67
2022/08/07 01:33:15;;;;;;;;;;;22.50;67.50;;;;;;6214746;23;1930;-67
2022/08/07 01:35:41;;;;;;;;;;;22.50;67.50;;;;;;6215100;23;1261;-68
2022/08/07 01:38:06;;;;;;;;;;;22.50;67.50;;;;;;6190040;23;1244;-68
2022/08/07 01:40:31;;;;;;;;;;;22.50;68.30;;;;;;6214372;23;1022;-67
2022/08/07 01:42:57;;;;;;;;;;;22.50;67.50;;;;;;6214506;23;1010;-67
2022/08/07 01:45:23;;;;;;;;;;;22.50;67.50;;;;;;6214175;23;1205;-67
2022/08/07 01:47:48;;;;;;;;;;;22.50;67.50;;;;;;6215829;23;863;-67
2022/08/07 01:50:14;;;;;;;;;;;22.50;67.60;;;;;;6216652;23;745;-67
2022/08/07 01:52:40;;;;;;;;;;;22.50;67.50;;;;;;6215843;23;1936;-68
2022/08/07 01:55:06;;;;;;;;;;;22.40;67.50;;;;;;6214039;23;1293;-68
2022/08/07 01:57:33;;;;;;;;;;;22.50;67.60;;;;;;6214443;23;891;-68
2022/08/07 02:00:01;;;;;;;;;;;22.50;67.60;;;;;;6216270;23;766;-68
2022/08/07 02:02:35;;;;;;;;;;;22.50;67.60;;;;;;6215845;23;911;-68
2022/08/07 02:05:05;;;;;;;;;;;22.40;67.60;;;;;;6189353;23;1293;-68
2022/08/07 02:07:32;;;;;;;;;;;22.50;67.60;;;;;;6213778;23;899;-69
2022/08/07 02:09:57;;;;;;;;;;;22.40;67.60;;;;;;6214629;23;792;-68
2022/08/07 02:12:23;;;;;;;;;;;22.40;67.70;;;;;;6214127;23;1919;-69
2022/08/07 02:14:50;;;;;;;;;;;22.40;67.70;;;;;;6214047;23;1277;-69
2022/08/07 02:17:15;;;;;;;;;;;22.40;67.60;;;;;;6213710;23;1192;-69
2022/08/07 02:19:41;;;;;;;;;;;22.40;67.60;;;;;;6215907;23;788;-68
2022/08/07 02:22:07;;;;;;;;;;;22.40;67.70;;;;;;6214460;23;812;-68
2022/08/07 02:24:32;;;;;;;;;;;22.40;67.70;;;;;;6214143;23;1349;-67
2022/08/07 02:26:58;;;;;;;;;;;22.40;67.70;;;;;;6213114;23;796;-67
2022/08/07 02:29:23;;;;;;;;;;;22.50;67.70;;;;;;6216343;23;791;-67
2022/08/07 02:31:49;;;;;;;;;;;22.40;67.70;;;;;;6215676;23;785;-67
2022/08/07 02:34:14;;;;;;;;;;;22.40;67.70;;;;;;6215548;23;1930;-66
2022/08/07 02:36:39;;;;;;;;;;;22.40;67.70;;;;;;6213628;23;986;-67
2022/08/07 02:39:05;;;;;;;;;;;22.40;67.70;;;;;;6215784;23;1018;-67
2022/08/07 02:41:30;;;;;;;;;;;22.40;67.80;;;;;;6214093;23;1050;-66
2022/08/07 02:43:56;;;;;;;;;;;22.40;67.80;;;;;;6213559;23;1047;-66
2022/08/07 02:46:22;;;;;;;;;;;22.40;67.80;;;;;;6213361;23;1239;-66
2022/08/07 02:48:47;;;;;;;;;;;22.40;67.80;;;;;;6215668;23;1215;-67
2022/08/07 02:51:14;;;;;;;;;;;22.40;67.80;;;;;;6214054;23;1030;-68
2022/08/07 02:53:39;;;;;;;;;;;22.40;67.80;;;;;;6214155;23;1957;-68
2022/08/07 02:56:05;;;;;;;;;;;22.40;67.80;;;;;;6212685;23;1293;-68
2022/08/07 02:58:31;;;;;;;;;;;22.40;67.80;;;;;;6213859;23;883;-68
2022/08/07 03:00:57;;;;;;;;;;;22.40;67.80;;;;;;6214212;23;816;-68
2022/08/07 03:03:22;;;;;;;;;;;22.40;67.80;;;;;;6213737;23;837;-67
2022/08/07 03:05:51;;;;;;;;;;;22.40;67.90;;;;;;6212999;23;1269;-68
2022/08/07 03:08:17;;;;;;;;;;;22.40;67.90;;;;;;6215751;23;847;-68
2022/08/07 03:10:44;;;;;;;;;;;22.40;67.90;;;;;;6213695;23;876;-65
2022/08/07 03:13:10;;;;;;;;;;;22.40;67.90;;;;;;6213089;23;1940;-66
2022/08/07 03:15:35;;;;;;;;;;;22.40;67.90;;;;;;6213224;23;1178;-66
2022/08/07 03:18:01;;;;;;;;;;;22.40;67.90;;;;;;6215233;23;867;-66
2022/08/07 03:20:26;;;;;;;;;;;22.40;67.90;;;;;;6188765;23;911;-66
2022/08/07 03:22:51;;;;;;;;;;;22.40;67.90;;;;;;6213496;23;839;-66
2022/08/07 03:25:17;;;;;;;;;;;22.40;67.90;;;;;;6213337;23;1274;-67
2022/08/07 03:27:42;;;;;;;;;;;22.40;68.00;;;;;;6214442;23;993;-67
2022/08/07 03:30:08;;;;;;;;;;;22.40;67.90;;;;;;6215242;23;839;-67
2022/08/07 03:32:36;;;;;;;;;;;22.40;67.90;;;;;;6214726;23;1893;-68
2022/08/07 03:35:02;;;;;;;;;;;22.40;67.90;;;;;;6215120;23;1197;-67
2022/08/07 03:37:30;;;;;;;;;;;22.40;68.00;;;;;;6212786;23;792;-67
2022/08/07 03:39:56;;;;;;;;;;;22.40;68.00;;;;;;6213915;23;820;-67
2022/08/07 03:42:22;;;;;;;;;;;22.40;68.00;;;;;;6213424;23;773;-67
2022/08/07 03:44:47;;;;;;;;;;;22.40;68.00;;;;;;6215026;23;1191;-66
2022/08/07 03:47:12;;;;;;;;;;;22.40;68.00;;;;;;6212997;23;841;-67
2022/08/07 03:49:38;;;;;;;;;;;22.40;68.00;;;;;;6204367;23;717;-65
2022/08/07 03:52:04;;;;;;;;;;;22.40;68.10;;;;;;6207614;23;1943;-66
2022/08/07 03:54:29;;;;;;;;;;;22.40;68.00;;;;;;6212978;23;1660;-65
2022/08/07 03:56:55;;;;;;;;;;;22.40;68.10;;;;;;6213085;23;926;-65
2022/08/07 03:59:20;;;;;;;;;;;22.40;68.10;;;;;;6211549;23;981;-66
2022/08/07 04:01:46;;;;;;;;;;;22.40;68.10;;;;;;6212166;23;792;-66
2022/08/07 04:04:11;;;;;;;;;;;22.40;68.10;;;;;;6211569;23;860;-65
2022/08/07 04:06:39;;;;;;;;;;;22.40;68.10;;;;;;6210313;23;1143;-67
2022/08/07 04:09:05;;;;;;;;;;;22.40;68.10;;;;;;6213419;23;737;-66
2022/08/07 04:11:30;;;;;;;;;;;22.40;68.10;;;;;;6213866;23;882;-67
2022/08/07 04:13:56;;;;;;;;;;;22.40;68.10;;;;;;6211804;23;1896;-65
2022/08/07 04:16:21;;;;;;;;;;;22.40;68.10;;;;;;6211196;23;1308;-66
2022/08/07 04:18:47;;;;;;;;;;;22.40;68.10;;;;;;6213742;23;792;-67
2022/08/07 04:21:12;;;;;;;;;;;22.40;68.10;;;;;;6212158;23;788;-66
2022/08/07 04:23:38;;;;;;;;;;;22.40;68.10;;;;;;6213406;23;848;-66
2022/08/07 04:26:05;;;;;;;;;;;22.40;68.20;;;;;;6211505;23;1221;-64
2022/08/07 04:28:30;;;;;;;;;;;22.40;68.20;;;;;;6211722;23;1021;-64
2022/08/07 04:30:56;;;;;;;;;;;22.40;68.20;;;;;;6213801;23;788;-65
2022/08/07 04:33:21;;;;;;;;;;;22.40;68.20;;;;;;6208079;23;1892;-66
2022/08/07 04:35:47;;;;;;;;;;;22.40;68.20;;;;;;6210928;23;1324;-65
2022/08/07 04:38:12;;;;;;;;;;;22.40;68.20;;;;;;6211105;23;902;-66
2022/08/07 04:40:38;;;;;;;;;;;22.40;68.20;;;;;;6213640;23;907;-67
2022/08/07 04:43:03;;;;;;;;;;;22.40;68.20;;;;;;6212145;23;883;-66
2022/08/07 04:45:35;;;;;;;;;;;22.40;68.20;;;;;;6212920;23;1274;-66
2022/08/07 04:48:00;;;;;;;;;;;22.40;68.20;;;;;;6209871;23;1054;-66
2022/08/07 04:50:32;;;;;;;;;;;22.40;68.20;;;;;;6213337;23;1005;-66
2022/08/07 04:52:58;;;;;;;;;;;22.40;68.20;;;;;;6211596;23;1940;-66
2022/08/07 04:55:30;;;;;;;;;;;22.40;68.20;;;;;;6212830;23;1206;-67
2022/08/07 04:57:56;;;;;;;;;;;22.40;68.30;;;;;;6212445;23;1127;-66
2022/08/07 05:00:27;;;;;;;;;;;22.40;68.30;;;;;;6213720;23;781;-66
2022/08/07 05:02:54;;;;;;;;;;;22.40;68.30;;;;;;6211520;23;1021;-66
2022/08/07 05:05:24;;;;;;;;;;;22.40;68.30;;;;;;6211905;23;1293;-68
2022/08/07 05:07:55;;;;;;;;;;;22.40;68.30;;;;;;6211620;23;918;-67
2022/08/07 05:10:22;;;;;;;;;;;22.40;68.30;;;;;;6213257;23;1098;-67
2022/08/07 05:12:49;;;;;;;;;;;22.40;68.30;;;;;;6213631;23;1948;-66
2022/08/07 05:15:19;;;;;;;;;;;22.40;68.30;;;;;;6212305;23;1212;-66
2022/08/07 05:17:48;;;;;;;;;;;22.40;68.30;;;;;;6212750;23;787;-66
2022/08/07 05:20:15;;;;;;;;;;;22.40;68.30;;;;;;6213799;23;843;-66
2022/08/07 05:22:40;;;;;;;;;;;22.40;68.30;;;;;;6214012;23;931;-67
2022/08/07 05:25:06;;;;;;;;;;;22.40;68.30;;;;;;6213117;23;1384;-68
2022/08/07 05:27:31;;;;;;;;;;;22.40;68.30;;;;;;6214335;23;1144;-66
2022/08/07 05:29:57;;;;;;;;;;;22.40;68.30;;;;;;6214671;23;807;-68
2022/08/07 05:32:25;;;;;;;;;;;22.40;68.40;;;;;;6212923;23;1928;-68
2022/08/07 05:34:50;;;;;;;;;;;22.40;68.30;;;;;;6208853;23;1230;-68
2022/08/07 05:37:15;;;;;;;;;;;22.40;68.40;;;;;;6213092;23;1026;-67
2022/08/07 05:39:41;;;;;;;;;;;22.40;68.40;;;;;;6213275;23;832;-68
2022/08/07 05:42:06;;;;;;;;;;;22.40;68.40;;;;;;6213894;23;821;-69
2022/08/07 05:44:35;;;;;;;;;;;22.40;68.40;;;;;;6214546;23;1277;-67
2022/08/07 05:47:00;;;;;;;;;;;22.40;68.40;;;;;;6212622;23;824;-68
2022/08/07 05:49:26;;;;;;;;;;;22.40;68.40;;;;;;6214610;23;876;-66
2022/08/07 05:51:51;;;;;;;;;;;22.40;68.40;;;;;;6213673;23;880;-65
2022/08/07 05:54:17;;;;;;;;;;;22.40;68.40;;;;;;6213159;23;1945;-66
2022/08/07 05:56:43;;;;;;;;;;;22.40;68.50;;;;;;6214106;23;1002;-68
2022/08/07 05:59:12;;;;;;;;;;;22.40;68.40;;;;;;6213529;23;1010;-66
2022/08/07 06:01:38;;;;;;;;;;;22.40;68.40;;;;;;6214368;23;764;-66
2022/08/07 06:04:03;;;;;;;;;;;22.40;68.40;;;;;;6212781;23;759;-67
2022/08/07 06:06:29;;;;;;;;;;;22.40;68.50;;;;;;6187128;23;1269;-66
2022/08/07 06:08:54;;;;;;;;;;;22.40;68.00;;;;;;6213667;23;841;-65
2022/08/07 06:11:20;;;;;;;;;;;22.40;67.40;;;;;;6214950;23;855;-64
2022/08/07 06:13:45;;;;;;;;;;;22.40;66.80;;;;;;6213244;23;1934;-65
2022/08/07 06:16:10;;;;;;;;;;;22.40;66.30;;;;;;6213452;23;1200;-65
2022/08/07 06:18:36;;;;;;;;;;;22.40;65.50;;;;;;6213073;23;918;-65
2022/08/07 06:21:03;;;;;;;;;;;22.40;64.90;;;;;;6214795;23;956;-65
2022/08/07 06:23:29;;;;;;;;;;;22.40;65.10;;;;;;6213257;23;813;-66
2022/08/07 06:25:54;;;;;;;;;;;22.40;65.30;;;;;;6212206;23;1202;-65
2022/08/07 06:28:20;;;;;;;;;;;22.40;64.90;;;;;;6213280;23;1257;-66
2022/08/07 06:30:45;;;;;;;;;;;22.40;63.60;;;;;;6212617;23;1329;-66
2022/08/07 06:33:10;;;;;;;;;;;22.30;64.10;;;;;;6214579;23;1968;-65
2022/08/07 06:35:36;;;;;;;;;;;22.30;63.90;;;;;;6213964;23;1278;-66
2022/08/07 06:38:04;;;;;;;;;;;22.30;63.20;;;;;;6214364;23;859;-65
2022/08/07 06:40:33;;;;;;;;;;;22.30;63.00;;;;;;6212883;23;938;-65
2022/08/07 06:42:58;;;;;;;;;;;22.30;63.00;;;;;;6213303;23;829;-65
2022/08/07 06:45:24;;;;;;;;;;;22.30;63.90;;;;;;6213831;23;1285;-65
2022/08/07 06:47:49;;;;;;;;;;;22.30;63.10;;;;;;6212372;23;928;-65
2022/08/07 06:50:15;;;;;;;;;;;22.30;62.30;;;;;;6212450;23;858;-65
2022/08/07 06:52:45;;;;;;;;;;;22.30;62.50;;;;;;6213003;23;1896;-65
2022/08/07 06:55:13;;;;;;;;;;;22.30;62.30;;;;;;6212611;23;1285;-66
2022/08/07 06:57:38;;;;;;;;;;;22.30;62.20;;;;;;6212383;23;840;-65
2022/08/07 07:00:04;;;;;;;;;;;22.30;61.70;;;;;;6213001;23;1606;-66
2022/08/07 07:02:30;;;;;;;;;;;22.30;61.80;;;;;;6214087;23;785;-65
2022/08/07 07:04:55;;;;;;;;;;;22.30;60.30;;;;;;6213292;23;1262;-67
2022/08/07 07:07:20;;;;;;;;;;;22.30;60.40;;;;;;6213934;23;911;-66
2022/08/07 07:09:47;;;;;;;;;;;22.30;60.70;;;;;;6214973;23;858;-67
2022/08/07 07:12:12;;;;;;;;;;;22.30;59.90;;;;;;6215504;23;1900;-68
2022/08/07 07:14:44;;;;;;;;;;;22.30;60.00;;;;;;6214775;23;1195;-67
2022/08/07 07:17:10;;;;;;;;;;;22.30;60.40;;;;;;6213069;23;1005;-65
2022/08/07 07:19:38;;;;;;;;;;;22.30;62.00;;;;;;6213460;23;764;-65
2022/08/07 07:22:04;;;;;;;;;;;22.30;60.20;;;;;;6211309;23;998;-65
2022/08/07 07:24:29;;;;;;;;;;;22.30;59.60;;;;;;6213773;23;1211;-65
2022/08/07 07:26:55;;;;;;;;;;;22.30;60.30;;;;;;6212864;23;1313;-65
2022/08/07 07:29:21;;;;;;;;;;;22.30;60.00;;;;;;6213583;23;816;-65
2022/08/07 07:31:47;;;;;;;;;;;22.30;61.80;;;;;;6213831;23;856;-65
2022/08/07 07:34:15;;;;;;;;;;;22.30;59.80;;;;;;6214981;23;1919;-66
2022/08/07 07:36:40;;;;;;;;;;;22.30;59.30;;;;;;6212670;23;1026;-66
2022/08/07 07:39:06;;;;;;;;;;;22.30;58.70;;;;;;6213555;23;1022;-65
2022/08/07 07:41:32;;;;;;;;;;;22.30;58.80;;;;;;6214983;23;1002;-67
2022/08/07 07:43:57;;;;;;;;;;;22.30;59.10;;;;;;6215239;23;954;-66
2022/08/07 07:46:23;;;;;;;;;;;22.20;58.90;;;;;;6214379;23;1273;-66
2022/08/07 07:48:49;;;;;;;;;;;22.30;57.90;;;;;;6213673;23;776;-65
2022/08/07 07:51:15;;;;;;;;;;;22.30;58.30;;;;;;6213096;23;915;-65
2022/08/07 07:53:41;;;;;;;;;;;22.20;58.30;;;;;;6213547;23;1926;-65
2022/08/07 07:56:07;;;;;;;;;;;22.20;59.10;;;;;;6213577;23;1198;-65
2022/08/07 07:58:33;;;;;;;;;;;22.30;58.50;;;;;;6213873;23;765;-65
2022/08/07 08:00:58;;;;;;;;;;;22.30;58.60;;;;;;6213395;23;903;-65
2022/08/07 08:03:24;;;;;;;;;;;22.30;58.90;;;;;;6213225;23;903;-65
2022/08/07 08:05:49;;;;;;;;;;;22.30;58.50;;;;;;6212508;23;1277;-64
2022/08/07 08:08:14;;;;;;;;;;;22.30;58.40;;;;;;6214746;23;839;-64
2022/08/07 08:10:40;;;;;;;;;;;22.30;58.20;;;;;;6192915;23;1667;-71
2022/08/07 08:13:06;;;;;;;;;;;22.30;57.60;;;;;;6186370;23;1940;-71
2022/08/07 08:15:33;;;;;;;;;;;22.30;57.90;;;;;;6161288;23;1302;-71
2022/08/07 08:17:58;;;;;;;;;;;22.30;57.90;;;;;;6187290;23;886;-71
2022/08/07 08:20:24;;;;;;;;;;;22.30;57.50;;;;;;6186779;23;1168;-71
2022/08/07 08:28:22;;;;;;;;;;;22.30;57.50;;;;;;6190926;23;639;-71
2022/08/07 08:30:48;;;;;;;;;;;22.30;57.00;;;;;;6187825;23;1335;-71
2022/08/07 08:33:17;;;;;;;;;;;22.30;57.40;;;;;;6187370;23;1935;-70
2022/08/07 08:35:44;;;;;;;;;;;22.30;57.30;;;;;;6175720;23;840;-69
2022/08/07 08:38:10;;;;;;;;;;;22.30;57.70;;;;;;6185688;23;955;-71
2022/08/07 08:40:36;;;;;;;;;;;22.30;57.80;;;;;;6186752;23;1235;-71
2022/08/07 08:43:03;;;;;;;;;;;22.30;58.10;;;;;;6187171;23;1006;-71
2022/08/07 08:45:48;;;;;;;;;;;22.30;58.20;;;;;;6187750;23;1018;-69
2022/08/07 08:48:26;;;;;;;;;;;22.30;58.40;;;;;;6213820;23;832;-69
2022/08/07 08:50:54;;;;;;;;;;;22.30;58.50;;;;;;6162100;23;1266;-69
2022/08/07 08:53:43;;;;;;;;;;;22.30;58.50;;;;;;6187705;23;1929;-70
2022/08/07 08:56:16;;;;;;;;;;;22.30;58.60;;;;;;6193755;23;1175;-70
2022/08/07 08:58:46;;;;;;;;;;;22.30;58.30;;;;;;6188303;23;804;-69
2022/08/07 09:01:13;;;;;;;;;;;22.30;58.20;;;;;;6164172;23;1173;-69
2022/08/07 09:03:43;;;;;;;;;;;22.30;57.30;;;;;;6215233;23;1038;-70
2022/08/07 09:06:10;;;;;;;;;;;22.30;57.60;;;;;;6187542;23;1034;-69
2022/08/07 09:08:42;;;;;;;;;;;22.30;57.60;;;;;;6163693;23;1200;-69
2022/08/07 09:11:13;;;;;;;;;;;22.30;57.60;;;;;;6214741;23;1215;-69
2022/08/07 09:13:57;;;;;;;;;;;22.30;57.60;;;;;;6209583;23;1896;-71
2022/08/07 09:16:55;;;;;;;;;;;22.30;57.90;;;;;;6214744;23;739;-70
2022/08/07 09:19:39;;;;;;;;;;;22.30;57.80;;;;;;6148105;23;1247;-69
2022/08/07 09:22:10;;;;;;;;;;;22.30;58.30;;;;;;6215235;23;907;-68
2022/08/07 09:24:38;;;;;;;;;;;22.30;58.50;;;;;;6213647;23;847;-69
2022/08/07 09:27:04;;;;;;;;;;;22.30;58.50;;;;;;6214513;23;801;-70
2022/08/07 09:29:38;;;;;;;;;;;22.30;58.50;;;;;;6214277;23;1277;-70
2022/08/07 09:32:06;;;;;;;;;;;22.30;58.40;;;;;;6213422;23;971;-69
2022/08/07 09:34:50;;;;;;;;;;;22.30;58.10;;;;;;6213072;23;1873;-70
2022/08/07 09:37:21;;;;;;;;;;;22.30;58.20;;;;;;6214398;23;808;-69
2022/08/07 09:39:55;;;;;;;;;;;22.30;57.00;;;;;;6213454;23;1291;-70
2022/08/07 09:42:27;;;;;;;;;;;22.30;57.10;;;;;;6214226;23;883;-69
2022/08/07 09:45:05;;;;;;;;;;;22.30;56.30;;;;;;6214871;23;809;-70
2022/08/07 09:47:36;;;;;;;;;;;22.30;56.40;;;;;;6208388;23;938;-70
2022/08/07 09:50:02;;;;;;;;;;;22.30;56.00;;;;;;6214290;23;1282;-70
2022/08/07 09:52:27;;;;;;;;;;;22.30;56.60;;;;;;6214772;23;1888;-70
2022/08/07 09:55:09;;;;;;;;;;;22.30;56.60;;;;;;6214003;23;943;-70
2022/08/07 09:57:49;;;;;;;;;;;22.30;56.40;;;;;;6210227;23;934;-70
2022/08/07 10:00:15;;;;;;;;;;;22.30;56.50;;;;;;6213168;23;1270;-70
2022/08/07 10:03:01;;;;;;;;;;;22.30;54.30;;;;;;6212990;23;902;-69
2022/08/07 10:05:38;;;;;;;;;;;22.30;54.90;;;;;;6213194;23;1098;-70
2022/08/07 10:08:23;;;;;;;;;;;22.40;55.40;;;;;;6214412;23;935;-70
2022/08/07 10:10:51;;;;;;;;;;;22.40;54.90;;;;;;6214252;23;1192;-70
2022/08/07 10:13:17;;;;;;;;;;;22.40;55.70;;;;;;6210172;23;1942;-70
2022/08/07 10:15:52;;;;;;;;;;;22.30;55.30;;;;;;6213697;23;951;-70
2022/08/07 10:18:32;;;;;;;;;;;22.30;55.40;;;;;;6212550;23;922;-70
2022/08/07 10:21:13;;;;;;;;;;;22.30;53.40;;;;;;6212626;23;1319;-70
2022/08/07 10:23:45;;;;;;;;;;;22.30;54.70;;;;;;6213701;23;1009;-70
2022/08/07 10:26:10;;;;;;;;;;;22.30;55.30;;;;;;6187825;23;1285;-70
2022/08/07 10:28:36;;;;;;;;;;;22.40;55.20;;;;;;6214700;23;851;-70
2022/08/07 10:31:07;;;;;;;;;;;22.40;55.40;;;;;;6215113;23;1278;-71
2022/08/07 10:33:36;;;;;;;;;;;22.40;56.40;;;;;;6215558;23;1904;-70
2022/08/07 10:36:19;;;;;;;;;;;22.40;55.90;;;;;;6215057;23;908;-70
2022/08/07 10:38:54;;;;;;;;;;;22.40;55.60;;;;;;6213881;23;871;-69
2022/08/07 10:41:28;;;;;;;;;;;22.40;55.60;;;;;;6213844;23;1294;-70
2022/08/07 10:44:14;;;;;;;;;;;22.30;56.00;;;;;;6215043;23;804;-69
2022/08/07 10:46:48;;;;;;;;;;;22.30;55.80;;;;;;6152959;23;1073;-69
2022/08/07 10:49:15;;;;;;;;;;;22.30;56.40;;;;;;6215119;23;1270;-69
2022/08/07 10:51:47;;;;;;;;;;;22.30;55.90;;;;;;6213952;23;788;-68
2022/08/07 10:54:33;;;;;;;;;;;22.30;55.50;;;;;;6215091;23;1897;-69
2022/08/07 10:57:08;;;;;;;;;;;22.30;55.20;;;;;;6212944;23;827;-70
2022/08/07 10:59:40;;;;;;;;;;;22.30;54.20;;;;;;6215029;23;1179;-70
2022/08/07 11:02:17;;;;;;;;;;;22.30;55.50;;;;;;6213690;23;788;-69
2022/08/07 11:04:51;;;;;;;;;;;22.30;55.60;;;;;;6213659;23;1057;-70
2022/08/07 11:07:21;;;;;;;;;;;22.30;54.20;;;;;;6214123;23;839;-69
2022/08/07 11:09:48;;;;;;;;;;;22.30;54.30;;;;;;6212956;23;1743;-70
2022/08/07 11:12:36;;;;;;;;;;;22.30;54.30;;;;;;6213748;23;1898;-70
2022/08/07 11:15:03;;;;;;;;;;;22.30;53.50;;;;;;6212048;23;812;-69
2022/08/07 11:17:33;;;;;;;;;;;22.40;51.90;;;;;;6210673;23;690;-68
2022/08/07 11:20:00;;;;;;;;;;;22.40;53.40;;;;;;6185463;23;1289;-68
2022/08/07 11:22:33;;;;;;;;;;;22.40;53.40;;;;;;6210998;23;795;-70
2022/08/07 11:25:07;;;;;;;;;;;22.40;53.60;;;;;;6211955;23;748;-70
2022/08/07 11:27:36;;;;;;;;;;;22.40;52.50;;;;;;6209383;23;907;-71
2022/08/07 11:30:02;;;;;;;;;;;22.40;51.60;;;;;;6212644;23;1291;-70
2022/08/07 11:32:34;;;;;;;;;;;22.40;51.80;;;;;;6213837;23;1889;-70
2022/08/07 11:35:01;;;;;;;;;;;22.40;52.30;;;;;;6213555;23;762;-70
2022/08/07 11:37:40;;;;;;;;;;;22.40;53.30;;;;;;6211735;23;848;-71
2022/08/07 11:40:06;;;;;;;;;;;22.40;52.50;;;;;;6212029;23;1179;-69
2022/08/07 11:42:31;;;;;;;;;;;22.40;52.10;;;;;;6213631;23;1309;-70
2022/08/07 11:44:59;;;;;;;;;;;22.40;53.10;;;;;;6214511;23;899;-70
2022/08/07 11:47:32;;;;;;;;;;;22.40;54.00;;;;;;6213550;23;967;-69
2022/08/07 11:50:13;;;;;;;;;;;22.40;54.60;;;;;;6214434;23;1219;-69
2022/08/07 11:52:41;;;;;;;;;;;22.40;54.90;;;;;;6212571;23;1885;-69
2022/08/07 11:55:22;;;;;;;;;;;22.40;55.30;;;;;;6212540;23;1155;-69
2022/08/07 11:57:47;;;;;;;;;;;22.40;54.90;;;;;;6214032;23;803;-69
2022/08/07 12:00:14;;;;;;;;;;;22.40;54.20;;;;;;6212814;23;1374;-69
2022/08/07 12:02:58;;;;;;;;;;;22.40;54.50;;;;;;6212547;23;935;-69
2022/08/07 12:05:42;;;;;;;;;;;22.40;55.00;;;;;;6214050;23;807;-69
2022/08/07 12:08:10;;;;;;;;;;;22.40;55.30;;;;;;6214069;23;974;-69
2022/08/07 12:10:48;;;;;;;;;;;22.40;55.40;;;;;;6212476;23;1246;-70
2022/08/07 12:13:28;;;;;;;;;;;22.40;55.50;;;;;;6214064;23;1892;-69
2022/08/07 12:15:55;;;;;;;;;;;22.40;56.50;;;;;;6211596;23;800;-68
2022/08/07 12:18:24;;;;;;;;;;;22.40;57.00;;;;;;6212657;23;930;-68
2022/08/07 12:20:55;;;;;;;;;;;22.40;56.50;;;;;;6186992;23;1243;-68
2022/08/07 12:23:41;;;;;;;;;;;22.40;56.40;;;;;;6213680;23;859;-68
2022/08/07 12:26:15;;;;;;;;;;;22.40;55.70;;;;;;6212294;23;879;-68
2022/08/07 12:28:43;;;;;;;;;;;22.40;54.30;;;;;;6214525;23;697;-68
2022/08/07 12:31:20;;;;;;;;;;;22.40;53.80;;;;;;6212023;23;1231;-68
2022/08/07 12:33:45;;;;;;;;;;;22.40;54.20;;;;;;6212880;23;1936;-68
2022/08/07 12:36:11;;;;;;;;;;;22.40;54.60;;;;;;6186794;23;1237;-68
2022/08/07 12:38:37;;;;;;;;;;;22.40;54.00;;;;;;6212708;23;851;-68
2022/08/07 12:41:02;;;;;;;;;;;22.40;53.60;;;;;;6212498;23;1230;-68
2022/08/07 12:43:29;;;;;;;;;;;22.40;52.50;;;;;;6212773;23;827;-68
2022/08/07 12:46:08;;;;;;;;;;;22.50;49.40;;;;;;6211335;23;743;-68
2022/08/07 12:48:36;;;;;;;;;;;22.50;49.90;;;;;;6214337;23;831;-68
2022/08/07 12:51:02;;;;;;;;;;;22.50;50.40;;;;;;6212220;23;1254;-68
2022/08/07 12:53:39;;;;;;;;;;;22.50;50.10;;;;;;6214567;23;1930;-68
2022/08/07 12:56:08;;;;;;;;;;;22.50;50.80;;;;;;6211831;23;922;-68
2022/08/07 12:58:36;;;;;;;;;;;22.50;51.90;;;;;;6214293;23;841;-69
2022/08/07 13:01:05;;;;;;;;;;;22.50;52.70;;;;;;6213544;23;1152;-68
2022/08/07 13:03:46;;;;;;;;;;;22.50;52.40;;;;;;6212365;23;974;-68
2022/08/07 13:06:19;;;;;;;;;;;22.50;51.70;;;;;;6213335;23;829;-68
2022/08/07 13:09:03;;;;;;;;;;;22.50;50.30;;;;;;6212587;23;836;-69
2022/08/07 13:11:48;;;;;;;;;;;22.50;50.00;;;;;;6213540;23;1125;-69
2022/08/07 13:14:29;;;;;;;;;;;22.50;49.70;;;;;;6212342;23;1930;-69
2022/08/07 13:17:02;;;;;;;;;;;22.60;49.20;;;;;;6212651;23;769;-69
2022/08/07 13:19:54;;;;;;;;;;;22.50;49.40;;;;;;6212805;23;1243;-69
2022/08/07 13:22:29;;;;;;;;;;;22.60;50.70;;;;;;6166030;23;1298;-68
2022/08/07 13:25:13;;;;;;;;;;;22.50;50.20;;;;;;6212801;23;823;-68
2022/08/07 13:27:44;;;;;;;;;;;22.60;50.70;;;;;;6213032;23;867;-68
2022/08/07 13:30:13;;;;;;;;;;;22.60;51.90;;;;;;6213706;23;1230;-68
2022/08/07 13:32:48;;;;;;;;;;;22.60;51.90;;;;;;6215549;23;1893;-68
2022/08/07 13:35:30;;;;;;;;;;;22.60;49.60;;;;;;6214521;23;800;-68
2022/08/07 13:37:58;;;;;;;;;;;22.60;49.40;;;;;;6213927;23;831;-69
2022/08/07 13:40:23;;;;;;;;;;;22.60;48.90;;;;;;6213496;23;1180;-69
2022/08/07 13:42:49;;;;;;;;;;;22.60;48.70;;;;;;6215280;23;855;-70
2022/08/07 13:45:14;;;;;;;;;;;22.60;48.40;;;;;;6213922;23;789;-69
2022/08/07 13:47:40;;;;;;;;;;;22.60;48.00;;;;;;6213053;23;773;-69
2022/08/07 13:50:06;;;;;;;;;;;22.60;48.30;;;;;;6216128;23;1223;-69
2022/08/07 13:52:32;;;;;;;;;;;22.60;47.70;;;;;;6213490;23;1988;-69
2022/08/07 13:54:57;;;;;;;;;;;22.60;48.60;;;;;;6202960;23;967;-70
2022/08/07 13:57:26;;;;;;;;;;;22.60;48.40;;;;;;6209933;23;880;-69
2022/08/07 13:59:54;;;;;;;;;;;22.60;48.60;;;;;;6211798;23;1288;-70
2022/08/07 14:02:26;;;;;;;;;;;22.60;50.00;;;;;;6211747;23;891;-69
2022/08/07 14:04:53;;;;;;;;;;;22.60;49.30;;;;;;6187938;23;1430;-67
2022/08/07 14:07:22;;;;;;;;;;;22.60;49.40;;;;;;6212432;23;1307;-70
2022/08/07 14:09:50;;;;;;;;;;;22.60;49.40;;;;;;6213821;23;1250;-70
2022/08/07 14:12:36;;;;;;;;;;;22.60;49.50;;;;;;6213197;23;1426;-69
2022/08/07 14:15:03;;;;;;;;;;;22.60;48.40;;;;;;6212892;23;772;-68
2022/08/07 14:17:29;;;;;;;;;;;22.60;48.10;;;;;;6212358;23;870;-69
2022/08/07 14:19:55;;;;;;;;;;;22.60;50.10;;;;;;6212920;23;1160;-69
2022/08/07 14:22:24;;;;;;;;;;;22.60;48.80;;;;;;6213012;23;847;-73
2022/08/07 14:24:50;;;;;;;;;;;22.60;48.60;;;;;;6212374;23;808;-70
2022/08/07 14:27:18;;;;;;;;;;;22.60;48.40;;;;;;6213707;23;784;-71
2022/08/07 14:29:48;;;;;;;;;;;22.60;47.90;;;;;;6212091;23;1263;-70
2022/08/07 14:32:13;;;;;;;;;;;22.60;49.80;;;;;;6212473;23;859;-70
2022/08/07 14:34:43;;;;;;;;;;;22.60;50.80;;;;;;6213695;23;1931;-69
2022/08/07 14:37:09;;;;;;;;;;;22.60;50.90;;;;;;6211804;23;871;-71
2022/08/07 14:39:39;;;;;;;;;;;22.60;50.00;;;;;;6211752;23;1152;-69
2022/08/07 14:42:05;;;;;;;;;;;22.60;49.40;;;;;;6212492;23;863;-68
2022/08/07 14:44:30;;;;;;;;;;;22.60;50.60;;;;;;6214451;23;855;-68
2022/08/07 14:46:56;;;;;;;;;;;22.60;50.10;;;;;;6211802;23;939;-67
2022/08/07 14:49:28;;;;;;;;;;;22.60;49.80;;;;;;6187254;23;1256;-68